Wilmington, Delaware
Current Conditions -  °F | °C
As of 1:51 AM on Friday 19 Dec 2014 (Local Time) from KILG Reporting Station
Scattered Clouds Scattered Clouds  
Wind Chill: 28°   Ceiling: Unl
Heat Index: 36°   Visibility: 10mi
Dew Point: 25°   Wind: 12mph
Humidity: 64%   Direction: 280°W
Pressure: 30.06"   Gusts: NA
Location:  39.74°N, 75.55°W
Report Text: KILG 190651Z 28010KT 10SM SCT040 02/M04 A3006 RMK AO2 SLP180 T00221039
Loading
Personal Weather Stations






























Interactive Weather Map New forecast layout! Learn more

10-Day Weather Forecast

Advertisements
Track Severe Weather on mobile